Young America, Minnesota
Current Conditions -  °F | °C
As of 5:54 PM on Saturday 25 Oct 2014 (Local Time) from KGYL Reporting Station
Clear Clear  
Wind Chill: 60°   Ceiling: Unl
Heat Index: 60°   Visibility: 10mi
Dew Point: 29°   Wind: 9mph
Humidity: 31%   Direction: 300°WNW
Pressure: 30.07"   Gusts: NA
Location:  44.78°N, 93.92°W
Report Text: KGYL 252254Z AUTO 30008KT 10SM CLR 15/M02 A3007 RMK AO2 T01531018
Loading
Personal Weather Stations






























Interactive Weather Map
Tropical Storm Tracking
New forecast layout! Learn more

10-Day Weather Forecast

Advertisements
Track Severe Weather on mobile